createdAt,value
2022-09-09T00:01:54.454Z,2.45
2022-09-09T00:04:26.889Z,2.50
2022-09-09T00:07:05.596Z,2.92
2022-09-09T00:09:32.186Z,2.28
2022-09-09T00:11:59.173Z,2.70
2022-09-09T00:14:31.730Z,2.67
2022-09-09T00:17:03.099Z,2.22
2022-09-09T00:22:09.819Z,2.22
2022-09-09T00:27:17.251Z,2.45
2022-09-09T00:32:17.861Z,2.85
2022-09-09T00:42:16.726Z,2.10
2022-09-09T00:44:52.407Z,2.28
2022-09-09T00:47:37.487Z,2.90
2022-09-09T00:50:25.678Z,2.00
2022-09-09T00:55:26.671Z,2.65
2022-09-09T00:57:54.094Z,2.53
2022-09-09T01:03:03.427Z,1.85
2022-09-09T01:05:47.686Z,2.30
2022-09-09T01:08:33.028Z,1.90
2022-09-09T01:11:00.450Z,2.55
2022-09-09T01:13:31.508Z,2.95
2022-09-09T01:16:01.890Z,2.70
2022-09-09T01:18:30.201Z,2.20
2022-09-09T01:21:16.133Z,2.53
2022-09-09T01:23:50.219Z,2.67
2022-09-09T01:26:43.190Z,2.08
2022-09-09T01:29:10.967Z,2.20
2022-09-09T01:31:42.382Z,2.40
2022-09-09T01:34:13.810Z,2.25
2022-09-09T01:36:44.079Z,2.53
2022-09-09T01:39:11.667Z,2.88
2022-09-09T01:41:39.599Z,2.00
2022-09-09T01:44:10.545Z,2.80
2022-09-09T01:46:37.116Z,2.40
2022-09-09T01:49:06.148Z,2.80
2022-09-09T01:51:32.880Z,2.35
2022-09-09T01:54:03.974Z,2.55
2022-09-09T01:56:49.363Z,2.28
2022-09-09T01:59:16.446Z,2.92
2022-09-09T02:01:43.822Z,2.50
2022-09-09T02:06:49.987Z,2.10
2022-09-09T02:09:24.912Z,2.42
2022-09-09T02:11:57.278Z,2.20
2022-09-09T02:14:40.260Z,2.08
2022-09-09T02:24:35.327Z,2.42
2022-09-09T02:27:28.734Z,1.85
2022-09-09T02:29:57.869Z,2.47
2022-09-09T02:35:14.462Z,2.42
2022-09-09T02:42:41.557Z,2.53
2022-09-09T02:47:37.565Z,2.85
2022-09-09T02:50:19.057Z,2.95
2022-09-09T02:53:05.109Z,2.53
2022-09-09T03:00:28.753Z,2.67
2022-09-09T03:02:59.914Z,2.33
2022-09-09T03:05:27.256Z,2.70
2022-09-09T03:07:54.138Z,2.50
2022-09-09T03:10:21.116Z,2.13
2022-09-09T03:12:47.744Z,2.83
2022-09-09T03:15:15.823Z,2.20
2022-09-09T03:17:42.823Z,2.30
2022-09-09T03:20:10.023Z,2.88
2022-09-09T03:29:58.637Z,2.50
2022-09-09T03:32:27.178Z,2.35
2022-09-09T03:34:56.760Z,2.20
2022-09-09T03:37:23.782Z,2.95
2022-09-09T03:39:51.328Z,2.65
2022-09-09T03:42:20.748Z,2.83
2022-09-09T03:47:22.743Z,2.92
2022-09-09T03:52:21.640Z,3.60
2022-09-09T03:54:51.044Z,3.50
2022-09-09T03:59:43.859Z,3.72
2022-09-09T04:02:11.076Z,3.42
2022-09-09T04:09:29.272Z,3.28
2022-09-09T04:11:56.519Z,2.92
2022-09-09T04:14:23.371Z,2.75
2022-09-09T04:16:50.158Z,2.70
2022-09-09T04:19:16.930Z,2.78
2022-09-09T04:21:43.646Z,2.88
2022-09-09T04:24:10.342Z,3.20
2022-09-09T04:26:37.743Z,2.85
2022-09-09T04:31:31.374Z,2.67
2022-09-09T04:33:58.209Z,2.60
2022-09-09T04:36:26.296Z,2.65
2022-09-09T04:38:52.938Z,2.08
2022-09-09T04:41:20.128Z,1.80
2022-09-09T04:43:50.333Z,2.05
2022-09-09T04:46:18.500Z,2.22
2022-09-09T04:48:45.199Z,2.80
2022-09-09T04:51:14.161Z,3.35
2022-09-09T05:01:06.952Z,2.15
2022-09-09T05:03:33.965Z,2.05
2022-09-09T05:06:06.026Z,2.08
2022-09-09T05:08:32.804Z,2.05
2022-09-09T05:11:00.700Z,2.10
2022-09-09T05:13:27.855Z,1.83
2022-09-09T05:18:20.991Z,1.50
2022-09-09T05:20:47.792Z,1.88
2022-09-09T05:23:14.565Z,1.70
2022-09-09T05:28:09.005Z,1.98
2022-09-09T05:30:35.822Z,2.30
2022-09-09T05:38:00.291Z,2.72
2022-09-09T05:42:53.582Z,2.20
2022-09-09T05:45:21.051Z,2.10
2022-09-09T05:50:18.579Z,3.10
2022-09-09T05:52:45.635Z,3.08
2022-09-09T06:02:29.377Z,3.33
2022-09-09T06:05:00.469Z,2.88
2022-09-09T06:07:28.214Z,2.80
2022-09-09T06:09:55.619Z,2.92
2022-09-09T06:12:22.424Z,3.00
2022-09-09T06:14:49.051Z,2.92
2022-09-09T06:17:15.635Z,3.65
2022-09-09T06:19:42.565Z,3.13
2022-09-09T06:22:12.149Z,3.13
2022-09-09T06:31:57.512Z,3.70
2022-09-09T06:34:26.883Z,3.78
2022-09-09T06:36:58.777Z,3.78
2022-09-09T06:39:29.246Z,3.50
2022-09-09T06:41:56.342Z,4.55
2022-09-09T06:46:49.318Z,3.67
2022-09-09T06:49:16.165Z,3.83
2022-09-09T06:51:44.720Z,3.45
2022-09-09T06:59:10.322Z,3.33
2022-09-09T07:01:39.025Z,3.58
2022-09-09T07:04:10.119Z,4.20
2022-09-09T07:06:45.052Z,3.20
2022-09-09T07:11:40.034Z,3.95
2022-09-09T07:14:06.814Z,3.58
2022-09-09T07:21:27.345Z,3.50
2022-09-09T07:23:55.426Z,3.42
2022-09-09T07:26:24.567Z,3.03
2022-09-09T07:28:51.182Z,3.90
2022-09-09T07:33:47.896Z,3.38
2022-09-09T07:36:19.455Z,3.28
2022-09-09T07:41:50.172Z,3.72
2022-09-09T07:44:22.491Z,3.50
2022-09-09T07:46:49.252Z,3.53
2022-09-09T07:51:42.941Z,3.80
2022-09-09T07:54:12.122Z,3.70
2022-09-09T07:59:08.308Z,3.45
2022-09-09T08:01:43.604Z,3.70
2022-09-09T08:09:09.811Z,3.38
2022-09-09T08:14:04.955Z,3.45
2022-09-09T08:16:33.519Z,3.55
2022-09-09T08:19:01.238Z,3.45
2022-09-09T08:21:29.289Z,3.47
2022-09-09T08:23:58.459Z,3.90
2022-09-09T08:26:26.525Z,3.70
2022-09-09T08:28:55.759Z,4.72
2022-09-09T08:33:53.366Z,3.38
2022-09-09T08:38:48.928Z,3.55
2022-09-09T08:41:36.323Z,3.95
2022-09-09T08:44:08.016Z,3.10
2022-09-09T08:59:17.717Z,2.45
2022-09-09T09:07:30.729Z,3.53
2022-09-09T09:10:39.876Z,2.72
2022-09-09T09:13:05.187Z,2.20
2022-09-09T09:15:37.496Z,2.45
2022-09-09T09:20:38.364Z,2.33
2022-09-09T09:23:06.721Z,2.30
2022-09-09T09:25:36.468Z,2.70
2022-09-09T09:30:58.953Z,2.63
2022-09-09T09:33:29.147Z,2.47
2022-09-09T09:35:55.988Z,2.33
2022-09-09T09:43:37.348Z,2.72
2022-09-09T09:46:20.797Z,2.40
2022-09-09T09:48:57.201Z,2.38
2022-09-09T09:51:25.031Z,2.58
2022-09-09T09:53:54.835Z,2.05
2022-09-09T09:56:29.832Z,2.80
2022-09-09T09:58:57.751Z,2.80
2022-09-09T10:09:00.330Z,3.10
2022-09-09T10:14:13.633Z,3.80
2022-09-09T10:19:31.185Z,2.90
2022-09-09T10:22:09.157Z,2.78
2022-09-09T10:27:14.485Z,2.95
2022-09-09T10:29:47.255Z,3.22
2022-09-09T10:32:38.299Z,2.80
2022-09-09T10:35:14.443Z,2.83
2022-09-09T10:37:47.403Z,2.60
2022-09-09T10:40:20.625Z,2.15
2022-09-09T10:42:47.688Z,2.10
2022-09-09T10:45:17.393Z,1.90
2022-09-09T10:50:09.596Z,1.70
2022-09-09T10:52:39.370Z,2.05
2022-09-09T10:55:15.218Z,1.50
2022-09-09T10:57:44.303Z,1.73
2022-09-09T11:02:44.654Z,1.90
2022-09-09T11:05:17.391Z,1.50
2022-09-09T11:17:50.471Z,2.22
2022-09-09T11:20:17.218Z,2.53
2022-09-09T11:22:49.781Z,2.40
2022-09-09T11:25:24.407Z,2.00
2022-09-09T11:27:51.070Z,2.70
2022-09-09T11:30:54.951Z,2.95
2022-09-09T11:33:35.259Z,3.22
2022-09-09T11:36:13.833Z,2.83
2022-09-09T11:38:52.256Z,2.90
2022-09-09T11:43:47.349Z,2.75
2022-09-09T11:46:16.336Z,3.38
2022-09-09T11:48:46.593Z,3.33
2022-09-09T11:51:17.148Z,2.63
2022-09-09T11:58:59.443Z,2.10
2022-09-09T12:01:35.057Z,2.05
2022-09-09T12:04:06.895Z,2.13
2022-09-09T12:06:34.570Z,1.90
2022-09-09T12:09:19.668Z,2.22
2022-09-09T12:11:46.660Z,2.55
2022-09-09T12:16:57.474Z,2.20
2022-09-09T12:19:26.895Z,1.80
2022-09-09T12:24:38.138Z,2.10
2022-09-09T12:27:31.054Z,2.00
2022-09-09T12:30:11.850Z,2.10
2022-09-09T12:32:39.123Z,2.83
2022-09-09T12:35:08.330Z,2.50
2022-09-09T12:37:49.904Z,1.95
2022-09-09T12:40:24.283Z,1.70
2022-09-09T12:42:51.399Z,1.98
2022-09-09T12:45:19.340Z,1.88
2022-09-09T12:47:48.612Z,2.28
2022-09-09T12:50:21.528Z,2.15
2022-09-09T12:52:48.911Z,2.10
2022-09-09T12:55:21.319Z,1.63
2022-09-09T13:00:17.986Z,2.20
2022-09-09T13:02:54.867Z,2.33
2022-09-09T13:05:24.173Z,1.92
2022-09-09T13:07:51.085Z,2.35
2022-09-09T13:10:36.725Z,2.60
2022-09-09T13:13:15.399Z,2.90
2022-09-09T13:15:49.838Z,2.40
2022-09-09T13:18:17.528Z,2.83
2022-09-09T13:20:48.069Z,2.88
2022-09-09T13:28:19.956Z,2.50
2022-09-09T13:31:00.061Z,2.25
2022-09-09T13:33:39.299Z,2.42
2022-09-09T13:36:10.238Z,2.35
2022-09-09T13:38:38.469Z,2.88
2022-09-09T13:48:28.093Z,2.58
2022-09-09T13:50:55.605Z,2.58
2022-09-09T13:53:22.204Z,2.88
2022-09-09T13:55:53.091Z,2.13
2022-09-09T14:05:38.510Z,2.50
2022-09-09T14:08:06.877Z,2.38
2022-09-09T14:10:33.759Z,2.25
2022-09-09T14:15:25.748Z,2.28
2022-09-09T14:17:53.296Z,2.25
2022-09-09T14:20:20.355Z,2.80
2022-09-09T14:22:47.095Z,2.38
2022-09-09T14:25:14.616Z,2.13
2022-09-09T14:27:41.305Z,2.33
2022-09-09T14:30:08.424Z,2.63
2022-09-09T14:32:35.338Z,2.53
2022-09-09T14:35:01.914Z,2.17
2022-09-09T14:47:11.439Z,3.22
2022-09-09T14:49:39.123Z,2.55
2022-09-09T14:52:07.511Z,2.13
2022-09-09T14:54:34.144Z,2.40
2022-09-09T14:57:00.782Z,2.28
2022-09-09T15:04:20.655Z,2.53
2022-09-09T15:09:15.209Z,2.60
2022-09-09T15:11:41.995Z,2.55
2022-09-09T15:14:09.510Z,2.92
2022-09-09T15:16:36.283Z,2.95
2022-09-09T15:19:03.566Z,2.60
2022-09-09T15:21:32.279Z,2.63
2022-09-09T15:23:59.197Z,2.67
2022-09-09T15:26:26.849Z,2.78
2022-09-09T15:28:53.414Z,2.40
2022-09-09T15:31:21.302Z,2.67
2022-09-09T15:34:01.463Z,2.35
2022-09-09T15:36:35.782Z,2.95
2022-09-09T15:39:03.491Z,2.55
2022-09-09T15:41:30.454Z,2.75
2022-09-09T15:44:01.426Z,2.50
2022-09-09T15:46:29.960Z,2.50
2022-09-09T15:51:45.205Z,2.30
2022-09-09T15:54:13.298Z,3.13
2022-09-09T15:56:40.397Z,2.20
2022-09-09T15:59:07.084Z,2.80
2022-09-09T16:01:34.491Z,2.55
2022-09-09T16:06:28.275Z,2.75
2022-09-09T16:08:55.484Z,2.90
2022-09-09T16:11:23.402Z,2.80
2022-09-09T16:13:51.279Z,2.50
2022-09-09T16:16:20.386Z,3.25
2022-09-09T16:21:17.813Z,2.70
2022-09-09T16:23:46.736Z,2.88
2022-09-09T16:28:50.374Z,3.15
2022-09-09T16:31:22.546Z,2.72
2022-09-09T16:33:50.241Z,3.15
2022-09-09T16:36:19.361Z,2.75
2022-09-09T16:38:46.165Z,3.08
2022-09-09T16:55:58.202Z,2.33
2022-09-09T16:58:27.313Z,2.97
2022-09-09T17:00:58.659Z,2.92
2022-09-09T17:03:25.326Z,2.25
2022-09-09T17:05:53.533Z,2.40
2022-09-09T17:10:46.802Z,2.97
2022-09-09T17:13:14.315Z,2.55
2022-09-09T17:15:44.121Z,3.53
2022-09-09T17:20:46.455Z,2.75
2022-09-09T17:23:17.027Z,2.60
2022-09-09T17:25:44.256Z,2.88
2022-09-09T17:28:15.968Z,2.60
2022-09-09T17:35:39.347Z,3.05
2022-09-09T17:38:09.497Z,3.42
2022-09-09T17:40:36.201Z,3.25
2022-09-09T17:43:02.813Z,2.72
2022-09-09T17:52:51.781Z,2.58
2022-09-09T17:57:44.733Z,2.53
2022-09-09T18:00:11.648Z,3.42
2022-09-09T18:02:40.820Z,3.08
2022-09-09T18:05:08.670Z,2.83
2022-09-09T18:07:35.241Z,2.47
2022-09-09T18:14:54.474Z,2.55
2022-09-09T18:19:46.651Z,2.85
2022-09-09T18:22:13.569Z,3.55
2022-09-09T18:24:41.460Z,3.40
2022-09-09T18:31:59.866Z,3.35
2022-09-09T18:41:52.301Z,2.55
2022-09-09T18:44:20.791Z,3.42
2022-09-09T18:46:53.041Z,3.25
2022-09-09T18:49:21.184Z,3.28
2022-09-09T18:51:48.720Z,3.80
2022-09-09T18:54:17.324Z,2.97
2022-09-09T18:56:44.351Z,2.97
2022-09-09T18:59:15.277Z,3.60
2022-09-09T19:06:49.420Z,2.95
2022-09-09T19:09:17.274Z,2.97
2022-09-09T19:11:44.330Z,2.70
2022-09-09T19:14:12.285Z,2.92
2022-09-09T19:16:44.272Z,2.72
2022-09-09T19:21:42.172Z,3.10
2022-09-09T19:24:12.840Z,2.65
2022-09-09T19:26:40.942Z,3.15
2022-09-09T19:29:10.215Z,3.00
2022-09-09T19:31:37.614Z,2.75
2022-09-09T19:36:32.304Z,3.53
2022-09-09T19:39:00.181Z,2.92
2022-09-09T19:41:27.831Z,3.08
2022-09-09T19:43:59.517Z,3.80
2022-09-09T19:46:26.851Z,3.33
2022-09-09T19:48:53.560Z,3.53
2022-09-09T19:51:21.924Z,3.22
2022-09-09T19:53:49.670Z,3.25
2022-09-09T19:58:45.235Z,3.20
2022-09-09T20:01:11.941Z,3.42
2022-09-09T20:03:40.093Z,3.72
2022-09-09T20:08:33.493Z,3.22
2022-09-09T20:11:01.463Z,3.00
2022-09-09T20:16:00.381Z,3.13
2022-09-09T20:23:31.384Z,3.28
2022-09-09T20:26:01.827Z,3.40
2022-09-09T20:28:29.586Z,3.10
2022-09-09T20:35:50.123Z,3.65
2022-09-09T20:38:19.855Z,3.70
2022-09-09T20:40:48.686Z,3.58
2022-09-09T20:43:17.676Z,3.17
2022-09-09T20:45:47.557Z,3.00
2022-09-09T20:48:14.661Z,3.25
2022-09-09T20:50:41.347Z,2.75
2022-09-09T20:53:08.102Z,3.25
2022-09-09T20:55:34.731Z,3.47
2022-09-09T21:02:52.319Z,3.53
2022-09-09T21:07:46.353Z,3.97
2022-09-09T21:10:13.597Z,2.97
2022-09-09T21:12:40.215Z,3.35
2022-09-09T21:15:07.143Z,3.42
2022-09-09T21:17:33.819Z,3.60
2022-09-09T21:20:00.712Z,3.00
2022-09-09T21:22:27.299Z,3.88
2022-09-09T21:24:53.943Z,3.25
2022-09-09T21:32:12.828Z,3.13
2022-09-09T21:34:40.415Z,3.63
2022-09-09T21:39:34.647Z,3.35
2022-09-09T21:42:01.837Z,4.07
2022-09-09T21:51:47.046Z,3.65
2022-09-09T21:54:13.761Z,2.80
2022-09-09T21:56:40.360Z,3.92
2022-09-09T21:59:07.059Z,2.97
2022-09-09T22:01:33.861Z,3.63
2022-09-09T22:04:00.835Z,3.58
2022-09-09T22:06:27.662Z,3.55
2022-09-09T22:08:59.011Z,3.78
2022-09-09T22:11:25.950Z,3.40
2022-09-09T22:18:52.295Z,3.80
2022-09-09T22:21:19.445Z,3.20
2022-09-09T22:26:16.009Z,3.67
2022-09-09T22:31:08.153Z,3.05
2022-09-09T22:33:35.154Z,3.00
2022-09-09T22:38:36.501Z,4.35
2022-09-09T22:41:03.746Z,3.33
2022-09-09T22:48:21.178Z,3.15
2022-09-09T22:50:48.134Z,3.55
2022-09-09T22:53:15.580Z,3.30
2022-09-09T22:58:08.482Z,4.10
2022-09-09T23:00:35.374Z,3.40
2022-09-09T23:10:19.166Z,3.10
2022-09-09T23:12:47.350Z,3.90
2022-09-09T23:15:14.145Z,3.75
2022-09-09T23:17:41.174Z,3.92
2022-09-09T23:20:10.622Z,3.35
2022-09-09T23:22:39.820Z,3.45
2022-09-09T23:27:32.989Z,3.88
2022-09-09T23:29:59.624Z,3.85
2022-09-09T23:34:51.944Z,3.65
2022-09-09T23:37:19.142Z,4.05
2022-09-09T23:39:45.803Z,4.20
2022-09-09T23:42:12.472Z,3.95
2022-09-09T23:44:39.730Z,3.63
2022-09-09T23:47:09.530Z,2.97
2022-09-09T23:52:06.417Z,3.50
2022-09-09T23:54:34.203Z,3.22
2022-09-09T23:57:03.078Z,3.22
2022-09-09T23:59:32.758Z,3.38
